Terminal Aerodrome Forecast
Issued by NWS

Home | Current Version | Previous Version | Text Only | Print | Product List | Glossary On
Versions: 1 2 3 4 5 6 7 8 9 10 11 12 13 14 15 16 17 18
575
FTUS41 KGYX 212337
TAFHIE
TAF
KHIE 212337Z 2200/2224 VRB03KT P6SM SCT050
     FM220800 00000KT 1/4SM FG VV001
     FM221130 31005KT P6SM SCT060
     FM221600 29008KT P6SM SCT050 BKN120=

USA.gov is the U.S. government's official web portal to all federal, state and local government web resources and services.